Time;durP1;ratioP1;P1;durP2;ratioP2;P2;SDS_P1;SDS_P2;PMS_P1;PMS_P2;Temp;Humidity;BMP_temperature;BMP_pressure;BME280_temperature;BME280_humidity;BME280_pressure;Samples;Min_cycle;Max_cycle;Signal;HPM_P1;HPM_P2
2022/01/25 00:08:27;;;;;;;52.47;38.75;;;;;;;;;;4995553;28;93710;-68
2022/01/25 00:24:29;;;;;;;51.80;39.50;;;;;;;;;;5000374;28;94416;-68
2022/01/25 00:29:36;;;;;;;52.58;40.63;;;;;;;;;;4983969;28;95316;-68
2022/01/25 00:32:02;;;;;;;50.03;39.58;;;;;;;;;;4991369;28;92524;-68
2022/01/25 00:34:30;;;;;;;54.60;42.70;;;;;;;;;;4989848;28;94091;-68
2022/01/25 00:36:56;;;;;;;56.08;42.38;;;;;;;;;;4996354;28;92693;-68
2022/01/25 00:39:23;;;;;;;53.40;39.90;;;;;;;;;;4992169;28;92457;-68
2022/01/25 00:41:49;;;;;;;56.38;42.80;;;;;;;;;;4990993;28;94096;-69
2022/01/25 00:44:16;;;;;;;53.58;42.13;;;;;;;;;;4990113;28;96452;-68
2022/01/25 00:46:42;;;;;;;49.30;40.13;;;;;;;;;;4997178;28;92475;-68
2022/01/25 00:49:11;;;;;;;50.95;40.58;;;;;;;;;;4990717;28;92641;-68
2022/01/25 00:54:15;;;;;;;52.42;41.30;;;;;;;;;;4991015;28;93511;-67
2022/01/25 00:56:46;;;;;;;58.35;39.40;;;;;;;;;;4994279;28;94073;-67
2022/01/25 00:59:14;;;;;;;53.72;41.67;;;;;;;;;;4991818;28;92499;-68
2022/01/25 01:01:41;;;;;;;49.97;37.65;;;;;;;;;;4994535;28;93667;-68
2022/01/25 01:04:08;;;;;;;54.13;40.90;;;;;;;;;;4990930;28;94569;-68
2022/01/25 01:06:35;;;;;;;54.13;40.78;;;;;;;;;;4991652;28;94536;-69
2022/01/25 01:09:01;;;;;;;58.30;42.25;;;;;;;;;;4989412;28;95011;-68
2022/01/25 01:11:35;;;;;;;57.13;40.30;;;;;;;;;;4992016;28;92520;-68
2022/01/25 01:16:48;;;;;;;50.30;41.10;;;;;;;;;;4995209;28;94288;-69
2022/01/25 01:30:31;;;;;;;51.97;39.72;;;;;;;;;;4991539;28;92513;-68
2022/01/25 01:43:34;;;;;;;55.63;40.85;;;;;;;;;;4983144;28;94675;-67
2022/01/25 01:46:20;;;;;;;54.47;41.78;;;;;;;;;;4988109;28;93977;-67
2022/01/25 01:49:01;;;;;;;59.72;41.88;;;;;;;;;;4997997;28;92494;-68
2022/01/25 01:51:32;;;;;;;55.58;40.78;;;;;;;;;;4984916;28;94277;-68
2022/01/25 01:54:01;;;;;;;53.10;40.20;;;;;;;;;;4995887;28;93354;-68
2022/01/25 01:56:28;;;;;;;59.22;42.05;;;;;;;;;;4997385;28;94188;-67
2022/01/25 01:58:55;;;;;;;52.47;41.80;;;;;;;;;;4996618;28;94649;-68
2022/01/25 02:01:24;;;;;;;50.88;40.78;;;;;;;;;;4989118;28;94894;-68
2022/01/25 02:03:51;;;;;;;58.03;44.08;;;;;;;;;;4991603;28;96325;-69
2022/01/25 02:06:18;;;;;;;58.13;42.58;;;;;;;;;;4995289;28;94875;-68
2022/01/25 02:08:45;;;;;;;57.97;42.92;;;;;;;;;;4993812;28;93199;-68
2022/01/25 02:11:11;;;;;;;57.70;43.67;;;;;;;;;;4992939;28;94626;-68
2022/01/25 02:13:40;;;;;;;58.03;43.80;;;;;;;;;;4999242;28;94293;-68
2022/01/25 02:16:10;;;;;;;58.67;43.00;;;;;;;;;;4998822;28;92590;-68
2022/01/25 02:24:06;;;;;;;56.97;40.22;;;;;;;;;;4994501;28;94006;-68
2022/01/25 02:26:33;;;;;;;61.58;44.00;;;;;;;;;;4992976;28;95840;-68
2022/01/25 02:28:59;;;;;;;59.47;39.35;;;;;;;;;;4996799;28;92938;-68
2022/01/25 02:31:25;;;;;;;57.03;42.33;;;;;;;;;;4993567;28;93700;-67
2022/01/25 02:33:52;;;;;;;60.90;44.67;;;;;;;;;;4994127;28;93194;-67
2022/01/25 02:36:26;;;;;;;61.22;41.20;;;;;;;;;;4993567;28;94080;-68
2022/01/25 02:38:53;;;;;;;57.20;43.55;;;;;;;;;;5003235;28;93999;-68
2022/01/25 02:41:19;;;;;;;62.85;43.85;;;;;;;;;;4994259;28;92964;-68
2022/01/25 02:43:47;;;;;;;61.70;44.17;;;;;;;;;;4997237;28;93179;-67
2022/01/25 02:48:52;;;;;;;61.90;43.80;;;;;;;;;;4991637;28;92471;-68
2022/01/25 02:51:20;;;;;;;56.85;41.38;;;;;;;;;;4984546;28;95736;-68
2022/01/25 02:53:46;;;;;;;61.70;45.65;;;;;;;;;;4991837;28;94920;-68
2022/01/25 02:56:14;;;;;;;61.80;46.40;;;;;;;;;;4996333;28;92498;-68
2022/01/25 02:58:41;;;;;;;58.08;43.15;;;;;;;;;;4992497;28;94445;-68
2022/01/25 03:01:07;;;;;;;57.97;43.85;;;;;;;;;;5001684;28;94238;-68
2022/01/25 03:03:34;;;;;;;59.95;45.47;;;;;;;;;;4995542;28;94345;-68
2022/01/25 03:06:02;;;;;;;61.20;43.25;;;;;;;;;;4993428;28;94173;-68
2022/01/25 03:08:28;;;;;;;67.13;44.63;;;;;;;;;;4996638;28;91852;-68
2022/01/25 03:10:58;;;;;;;59.83;43.80;;;;;;;;;;4992446;28;93512;-68
2022/01/25 03:13:31;;;;;;;59.33;42.85;;;;;;;;;;5001864;28;94387;-68
2022/01/25 03:16:05;;;;;;;63.47;44.05;;;;;;;;;;4989930;28;95845;-68
2022/01/25 03:21:02;;;;;;;62.53;44.95;;;;;;;;;;4991658;28;93566;-68
2022/01/25 03:23:31;;;;;;;61.60;44.60;;;;;;;;;;4995870;28;92441;-68
2022/01/25 03:25:57;;;;;;;64.20;44.28;;;;;;;;;;4993899;28;93446;-68
2022/01/25 03:28:24;;;;;;;63.47;45.17;;;;;;;;;;4993287;28;94344;-68
2022/01/25 03:30:50;;;;;;;64.13;45.53;;;;;;;;;;4990659;28;93978;-69
2022/01/25 03:33:17;;;;;;;63.22;46.30;;;;;;;;;;4991843;28;93506;-68
2022/01/25 03:35:43;;;;;;;63.97;45.38;;;;;;;;;;4993209;28;92424;-68
2022/01/25 03:38:10;;;;;;;63.22;42.72;;;;;;;;;;4991923;28;93938;-68
2022/01/25 03:40:37;;;;;;;63.60;45.65;;;;;;;;;;4992590;28;96600;-68
2022/01/25 03:43:06;;;;;;;60.50;44.53;;;;;;;;;;4991716;28;92462;-69
2022/01/25 03:45:34;;;;;;;61.30;45.85;;;;;;;;;;4995423;28;93927;-68
2022/01/25 03:50:40;;;;;;;64.63;46.42;;;;;;;;;;4992789;28;92989;-67
2022/01/25 03:53:07;;;;;;;65.43;44.90;;;;;;;;;;4993932;28;93528;-68
2022/01/25 03:55:34;;;;;;;67.32;43.50;;;;;;;;;;4993173;28;93845;-68
2022/01/25 03:58:00;;;;;;;65.32;43.20;;;;;;;;;;4996013;28;94167;-67
2022/01/25 04:00:27;;;;;;;68.65;45.53;;;;;;;;;;4992208;28;94264;-67
2022/01/25 04:03:03;;;;;;;65.18;47.15;;;;;;;;;;4989687;28;93169;-67
2022/01/25 04:05:47;;;;;;;63.80;45.70;;;;;;;;;;4994051;28;95096;-67
2022/01/25 04:08:14;;;;;;;65.32;45.88;;;;;;;;;;4997585;28;94087;-68
2022/01/25 04:10:41;;;;;;;64.90;46.63;;;;;;;;;;4992552;28;93879;-69
2022/01/25 04:13:08;;;;;;;73.63;45.45;;;;;;;;;;4992382;28;93588;-69
2022/01/25 04:15:34;;;;;;;67.05;45.78;;;;;;;;;;4993687;28;92467;-68
2022/01/25 04:20:58;;;;;;;64.88;45.60;;;;;;;;;;4999289;28;93546;-68
2022/01/25 04:26:09;;;;;;;65.25;46.78;;;;;;;;;;4990322;28;92814;-68
2022/01/25 04:28:35;;;;;;;66.20;46.55;;;;;;;;;;4981493;28;93444;-68
2022/01/25 04:31:02;;;;;;;68.47;46.15;;;;;;;;;;4983145;28;96630;-68
2022/01/25 04:33:39;;;;;;;70.50;47.67;;;;;;;;;;4991700;28;94390;-68
2022/01/25 04:49:41;;;;;;;66.22;44.92;;;;;;;;;;4984054;28;92731;-68
2022/01/25 04:52:12;;;;;;;67.28;46.17;;;;;;;;;;5002511;28;93545;-68
2022/01/25 05:00:03;;;;;;;68.78;46.22;;;;;;;;;;4991495;28;94603;-68
2022/01/25 05:02:53;;;;;;;61.45;41.67;;;;;;;;;;4990954;28;93525;-68
2022/01/25 05:05:37;;;;;;;64.65;45.45;;;;;;;;;;4991044;28;92517;-68
2022/01/25 05:10:45;;;;;;;66.18;48.38;;;;;;;;;;4998342;28;94179;-68
2022/01/25 05:23:21;;;;;;;67.57;45.58;;;;;;;;;;4992930;28;96986;-68
2022/01/25 05:25:47;;;;;;;67.88;45.92;;;;;;;;;;4991728;28;92438;-68
2022/01/25 05:28:14;;;;;;;70.05;47.30;;;;;;;;;;4990755;28;94369;-68
2022/01/25 05:30:43;;;;;;;65.35;44.75;;;;;;;;;;4990095;28;93548;-68
2022/01/25 05:33:09;;;;;;;69.25;45.83;;;;;;;;;;4989821;28;92507;-68
2022/01/25 05:35:36;;;;;;;68.22;46.13;;;;;;;;;;4991123;28;93459;-68
2022/01/25 05:38:02;;;;;;;71.43;47.03;;;;;;;;;;5001929;28;94224;-68
2022/01/25 05:48:26;;;;;;;68.30;46.67;;;;;;;;;;5003114;28;95219;-68
2022/01/25 05:50:54;;;;;;;73.45;48.33;;;;;;;;;;4990379;28;93361;-68
2022/01/25 05:53:21;;;;;;;67.03;45.15;;;;;;;;;;4997770;28;92872;-68
2022/01/25 05:55:48;;;;;;;73.30;47.70;;;;;;;;;;4995122;28;93705;-68
2022/01/25 05:58:14;;;;;;;71.18;46.25;;;;;;;;;;4996320;28;94331;-68
2022/01/25 06:00:40;;;;;;;76.28;48.42;;;;;;;;;;5001037;28;92908;-68
2022/01/25 06:03:07;;;;;;;72.68;46.00;;;;;;;;;;4997362;28;93736;-68
2022/01/25 06:05:34;;;;;;;83.97;50.70;;;;;;;;;;4997370;28;92121;-68
2022/01/25 06:08:00;;;;;;;72.68;47.28;;;;;;;;;;4996445;28;92597;-69
2022/01/25 06:10:27;;;;;;;70.20;47.97;;;;;;;;;;4995044;28;93797;-68
2022/01/25 06:12:53;;;;;;;74.30;46.83;;;;;;;;;;4994740;28;94934;-68
2022/01/25 06:15:20;;;;;;;73.85;45.30;;;;;;;;;;4997028;28;97621;-68
2022/01/25 06:17:49;;;;;;;74.43;48.28;;;;;;;;;;4996538;28;94047;-68
2022/01/25 06:20:15;;;;;;;74.50;48.92;;;;;;;;;;4996005;28;92690;-68
2022/01/25 06:22:42;;;;;;;74.60;49.38;;;;;;;;;;5000466;28;93175;-68
2022/01/25 06:25:10;;;;;;;75.28;48.55;;;;;;;;;;5000047;28;92450;-68
2022/01/25 06:27:39;;;;;;;80.70;49.92;;;;;;;;;;4998698;28;96216;-69
2022/01/25 06:30:07;;;;;;;78.93;49.88;;;;;;;;;;4990172;28;92386;-69
2022/01/25 06:32:33;;;;;;;75.53;48.85;;;;;;;;;;4994931;28;92559;-68
2022/01/25 06:34:59;;;;;;;72.15;49.00;;;;;;;;;;4996009;28;94023;-69
2022/01/25 06:37:26;;;;;;;73.45;48.40;;;;;;;;;;4994996;28;96428;-68
2022/01/25 06:39:52;;;;;;;72.10;48.33;;;;;;;;;;4996566;28;92449;-68
2022/01/25 06:42:19;;;;;;;70.03;48.60;;;;;;;;;;4999096;28;93752;-68
2022/01/25 06:44:45;;;;;;;70.32;46.55;;;;;;;;;;5000546;28;93464;-68
2022/01/25 06:47:12;;;;;;;70.13;44.80;;;;;;;;;;4995449;28;94069;-68
2022/01/25 06:49:38;;;;;;;68.65;48.55;;;;;;;;;;4994901;28;94498;-68
2022/01/25 06:52:08;;;;;;;68.68;46.42;;;;;;;;;;4994221;28;92516;-69
2022/01/25 06:54:35;;;;;;;74.57;48.35;;;;;;;;;;4997659;28;94392;-69
2022/01/25 06:57:01;;;;;;;71.63;47.70;;;;;;;;;;4992561;28;95014;-68
2022/01/25 06:59:27;;;;;;;76.15;48.80;;;;;;;;;;4992016;28;93909;-68
2022/01/25 07:01:54;;;;;;;79.18;48.70;;;;;;;;;;4992727;28;94857;-68
2022/01/25 07:04:20;;;;;;;78.15;51.13;;;;;;;;;;4995764;28;93751;-69
2022/01/25 07:06:46;;;;;;;79.18;49.85;;;;;;;;;;4999799;28;93257;-68
2022/01/25 07:09:13;;;;;;;74.95;51.50;;;;;;;;;;4992378;28;94164;-68
2022/01/25 07:11:39;;;;;;;85.90;52.92;;;;;;;;;;4995666;28;93362;-69
2022/01/25 07:14:05;;;;;;;78.18;50.22;;;;;;;;;;4993352;28;94438;-69
2022/01/25 07:16:32;;;;;;;72.95;45.40;;;;;;;;;;4993404;28;93911;-68
2022/01/25 07:18:58;;;;;;;83.93;50.25;;;;;;;;;;4995838;28;91750;-69
2022/01/25 07:21:24;;;;;;;76.00;49.63;;;;;;;;;;5001121;28;93367;-69
2022/01/25 07:23:51;;;;;;;77.28;49.42;;;;;;;;;;4992475;28;94521;-69
2022/01/25 07:26:17;;;;;;;79.25;47.75;;;;;;;;;;4996267;28;95053;-69
2022/01/25 07:28:44;;;;;;;84.78;51.92;;;;;;;;;;4993454;28;94400;-69
2022/01/25 07:31:10;;;;;;;76.30;51.70;;;;;;;;;;4995952;28;93172;-69
2022/01/25 07:33:41;;;;;;;76.57;48.10;;;;;;;;;;4992976;28;94045;-69
2022/01/25 07:36:10;;;;;;;85.00;52.10;;;;;;;;;;4994106;28;94878;-69
2022/01/25 07:38:41;;;;;;;87.85;51.78;;;;;;;;;;4990331;28;94464;-69
2022/01/25 07:41:13;;;;;;;79.22;49.17;;;;;;;;;;4992701;28;92909;-69
2022/01/25 07:43:41;;;;;;;83.68;51.83;;;;;;;;;;4994534;28;93713;-70
2022/01/25 07:46:15;;;;;;;78.90;48.72;;;;;;;;;;4994212;28;92458;-68
2022/01/25 07:48:47;;;;;;;93.97;52.22;;;;;;;;;;4993161;28;94198;-68
2022/01/25 07:51:14;;;;;;;79.13;49.78;;;;;;;;;;4987672;28;94937;-68
2022/01/25 07:53:41;;;;;;;81.80;53.45;;;;;;;;;;4988769;28;94286;-68
2022/01/25 07:56:07;;;;;;;79.07;52.22;;;;;;;;;;4998116;28;94083;-68
2022/01/25 07:58:33;;;;;;;81.57;50.80;;;;;;;;;;4990794;28;92913;-68
2022/01/25 08:01:00;;;;;;;87.53;51.65;;;;;;;;;;4994655;28;93903;-69
2022/01/25 08:03:26;;;;;;;80.10;50.97;;;;;;;;;;4989374;28;94307;-69
2022/01/25 08:05:57;;;;;;;81.70;52.40;;;;;;;;;;5000182;28;92627;-68
2022/01/25 08:08:24;;;;;;;81.78;47.67;;;;;;;;;;4992355;28;94085;-69
2022/01/25 08:10:52;;;;;;;82.97;51.45;;;;;;;;;;5004809;28;94641;-69
2022/01/25 08:13:21;;;;;;;84.07;49.83;;;;;;;;;;4996256;28;94220;-69
2022/01/25 08:15:53;;;;;;;75.15;45.72;;;;;;;;;;4988163;28;97479;-69
2022/01/25 08:18:28;;;;;;;81.65;50.15;;;;;;;;;;4995311;28;92590;-69
2022/01/25 08:21:20;;;;;;;80.90;46.50;;;;;;;;;;4987923;28;93243;-69
2022/01/25 08:23:46;;;;;;;83.90;49.53;;;;;;;;;;4992711;28;93296;-69
2022/01/25 08:26:23;;;;;;;76.53;43.47;;;;;;;;;;4992601;28;93894;-69
2022/01/25 08:28:57;;;;;;;76.63;48.85;;;;;;;;;;4986136;28;94607;-69
2022/01/25 08:31:31;;;;;;;79.97;47.30;;;;;;;;;;4995606;28;94746;-69
2022/01/25 08:34:11;;;;;;;79.05;48.17;;;;;;;;;;4991812;28;91730;-70
2022/01/25 08:36:52;;;;;;;80.50;46.05;;;;;;;;;;4959751;28;93114;-69
2022/01/25 08:39:26;;;;;;;74.93;49.15;;;;;;;;;;4990143;28;92532;-69
2022/01/25 08:42:24;;;;;;;74.05;45.45;;;;;;;;;;4925874;28;95141;-68
2022/01/25 08:45:06;;;;;;;82.45;48.72;;;;;;;;;;4923936;28;94513;-69
2022/01/25 08:47:36;;;;;;;79.22;46.83;;;;;;;;;;4927944;28;93173;-68
2022/01/25 08:50:08;;;;;;;82.65;49.83;;;;;;;;;;4924371;28;93158;-69
2022/01/25 08:52:49;;;;;;;78.43;46.63;;;;;;;;;;4927776;28;92615;-68
2022/01/25 08:55:35;;;;;;;82.32;50.97;;;;;;;;;;4935149;28;93509;-68
2022/01/25 08:58:03;;;;;;;73.18;40.22;;;;;;;;;;4935517;28;94084;-70
2022/01/25 09:00:32;;;;;;;77.80;46.35;;;;;;;;;;4965153;28;91743;-69
2022/01/25 09:03:00;;;;;;;76.78;48.05;;;;;;;;;;4990660;28;94184;-69
2022/01/25 09:05:27;;;;;;;79.90;48.42;;;;;;;;;;4991434;28;94141;-69
2022/01/25 09:07:54;;;;;;;89.38;48.72;;;;;;;;;;4989155;28;95152;-69
2022/01/25 09:10:20;;;;;;;80.25;50.92;;;;;;;;;;4991576;28;96337;-69
2022/01/25 09:12:46;;;;;;;83.07;47.75;;;;;;;;;;4990638;28;93107;-69
2022/01/25 09:15:13;;;;;;;80.90;50.45;;;;;;;;;;4990550;28;92522;-69
2022/01/25 09:17:39;;;;;;;87.22;49.03;;;;;;;;;;4994749;28;93047;-68
2022/01/25 09:20:06;;;;;;;79.28;50.30;;;;;;;;;;4991655;28;92764;-68
2022/01/25 09:22:33;;;;;;;77.70;48.95;;;;;;;;;;4991583;28;94127;-68
2022/01/25 09:25:19;;;;;;;78.60;47.88;;;;;;;;;;4993824;28;93391;-68
2022/01/25 09:27:46;;;;;;;82.03;47.53;;;;;;;;;;4991214;28;92574;-69
2022/01/25 09:30:12;;;;;;;80.40;49.60;;;;;;;;;;4990867;28;93379;-68
2022/01/25 09:32:39;;;;;;;83.70;50.28;;;;;;;;;;4990972;28;96636;-68
2022/01/25 09:35:06;;;;;;;81.63;49.55;;;;;;;;;;4985816;28;92487;-68
2022/01/25 09:37:32;;;;;;;75.55;48.72;;;;;;;;;;4991375;28;94072;-68
2022/01/25 09:39:59;;;;;;;76.85;45.55;;;;;;;;;;4994822;28;94461;-68
2022/01/25 09:42:28;;;;;;;80.30;47.40;;;;;;;;;;4997111;28;95019;-69
2022/01/25 09:44:55;;;;;;;74.93;46.42;;;;;;;;;;4988554;28;94515;-68
2022/01/25 09:47:21;;;;;;;77.18;48.03;;;;;;;;;;4988987;28;92513;-69
2022/01/25 09:49:48;;;;;;;82.65;50.75;;;;;;;;;;4991274;28;94905;-68
2022/01/25 09:52:15;;;;;;;79.43;49.03;;;;;;;;;;4989522;28;95247;-69
2022/01/25 09:54:42;;;;;;;75.93;48.22;;;;;;;;;;4990731;28;92464;-69
2022/01/25 09:57:08;;;;;;;74.85;47.28;;;;;;;;;;4984923;28;94900;-69
2022/01/25 09:59:35;;;;;;;77.38;48.92;;;;;;;;;;4990670;28;94163;-69
2022/01/25 10:02:01;;;;;;;86.05;51.45;;;;;;;;;;4993441;28;92476;-69
2022/01/25 10:04:35;;;;;;;81.50;49.42;;;;;;;;;;4989980;28;93608;-69
2022/01/25 10:07:04;;;;;;;72.22;45.65;;;;;;;;;;4989426;28;92545;-68
2022/01/25 10:09:32;;;;;;;82.47;48.70;;;;;;;;;;4990949;28;93926;-69
2022/01/25 10:12:25;;;;;;;82.10;49.20;;;;;;;;;;4989013;28;93590;-69
2022/01/25 10:15:08;;;;;;;77.53;48.65;;;;;;;;;;4988444;28;91746;-69
2022/01/25 10:17:53;;;;;;;78.10;44.50;;;;;;;;;;4987900;28;93453;-69
2022/01/25 10:20:30;;;;;;;82.85;49.25;;;;;;;;;;4990984;28;93799;-69
2022/01/25 10:23:00;;;;;;;77.57;46.65;;;;;;;;;;4988695;28;95017;-68
2022/01/25 10:25:30;;;;;;;81.57;48.70;;;;;;;;;;4994475;28;96404;-68
2022/01/25 10:28:01;;;;;;;74.55;46.45;;;;;;;;;;4993851;28;94221;-69
2022/01/25 10:30:31;;;;;;;76.53;48.00;;;;;;;;;;4993942;28;95275;-69
2022/01/25 10:33:01;;;;;;;78.97;44.72;;;;;;;;;;4993007;28;94322;-69
2022/01/25 10:35:28;;;;;;;76.82;46.72;;;;;;;;;;4994211;28;93730;-69
2022/01/25 10:37:55;;;;;;;75.18;45.35;;;;;;;;;;4993467;28;92776;-69
2022/01/25 10:40:35;;;;;;;81.10;48.60;;;;;;;;;;4993366;28;92505;-69
2022/01/25 10:43:03;;;;;;;81.53;46.65;;;;;;;;;;4993231;28;92530;-69
2022/01/25 10:45:29;;;;;;;79.03;48.28;;;;;;;;;;4996977;28;94454;-69
2022/01/25 10:47:56;;;;;;;71.70;46.67;;;;;;;;;;4991657;28;95333;-70
2022/01/25 10:50:24;;;;;;;85.50;50.90;;;;;;;;;;4994154;28;95582;-69
2022/01/25 10:53:15;;;;;;;73.43;46.80;;;;;;;;;;4993832;28;94132;-69
2022/01/25 10:55:43;;;;;;;75.88;44.83;;;;;;;;;;4987519;28;92458;-69
2022/01/25 10:58:10;;;;;;;76.53;48.50;;;;;;;;;;4993264;28;94413;-69
2022/01/25 11:00:38;;;;;;;74.90;44.33;;;;;;;;;;4992505;28;93687;-69
2022/01/25 11:03:05;;;;;;;85.35;50.47;;;;;;;;;;4992905;28;93004;-69
2022/01/25 11:05:33;;;;;;;83.45;47.78;;;;;;;;;;4985199;28;92948;-69
2022/01/25 11:08:09;;;;;;;67.72;39.58;;;;;;;;;;4996084;28;93786;-70
2022/01/25 11:10:36;;;;;;;80.03;48.45;;;;;;;;;;4986491;28;94065;-70
2022/01/25 11:13:07;;;;;;;74.90;42.00;;;;;;;;;;4991160;28;95538;-69
2022/01/25 11:15:33;;;;;;;71.10;42.90;;;;;;;;;;4991598;28;92579;-70
2022/01/25 11:18:00;;;;;;;71.20;41.35;;;;;;;;;;4990891;28;94058;-70
2022/01/25 11:20:27;;;;;;;79.75;45.70;;;;;;;;;;4997500;28;94729;-70
2022/01/25 11:22:53;;;;;;;79.07;47.50;;;;;;;;;;4991138;28;92579;-69
2022/01/25 11:25:22;;;;;;;72.40;41.45;;;;;;;;;;4992815;28;93767;-70
2022/01/25 11:27:49;;;;;;;79.43;46.00;;;;;;;;;;4992367;28;93747;-70
2022/01/25 11:30:17;;;;;;;79.22;47.13;;;;;;;;;;4994843;28;93181;-70
2022/01/25 11:32:47;;;;;;;77.57;47.00;;;;;;;;;;4991274;28;94397;-69
2022/01/25 11:35:16;;;;;;;56.97;34.97;;;;;;;;;;4993869;28;93196;-70
2022/01/25 11:37:43;;;;;;;75.55;46.28;;;;;;;;;;4989124;28;97343;-69
2022/01/25 11:40:20;;;;;;;80.40;45.50;;;;;;;;;;4996446;28;93693;-70
2022/01/25 11:42:48;;;;;;;75.55;43.30;;;;;;;;;;4988497;28;92669;-70
2022/01/25 11:45:14;;;;;;;73.20;43.83;;;;;;;;;;5001884;28;95023;-70
2022/01/25 11:47:46;;;;;;;70.47;42.50;;;;;;;;;;4996967;28;94767;-70
2022/01/25 11:50:13;;;;;;;79.03;42.38;;;;;;;;;;4993674;28;92607;-70
2022/01/25 11:52:50;;;;;;;76.68;44.08;;;;;;;;;;5000700;28;93929;-69
2022/01/25 11:55:27;;;;;;;68.18;41.00;;;;;;;;;;4992141;28;91851;-69
2022/01/25 11:58:05;;;;;;;75.47;45.25;;;;;;;;;;4989844;28;95377;-70
2022/01/25 12:00:57;;;;;;;83.32;46.55;;;;;;;;;;4992569;28;94248;-69
2022/01/25 12:03:32;;;;;;;71.28;41.70;;;;;;;;;;4991116;28;95332;-68
2022/01/25 12:06:07;;;;;;;76.20;42.85;;;;;;;;;;4997910;28;95626;-68
2022/01/25 12:11:29;;;;;;;74.72;45.00;;;;;;;;;;4991144;28;92881;-69
2022/01/25 12:14:09;;;;;;;69.13;42.95;;;;;;;;;;4991804;28;94461;-69
2022/01/25 12:16:43;;;;;;;74.85;44.30;;;;;;;;;;4995260;28;94778;-69
2022/01/25 12:19:11;;;;;;;75.53;46.97;;;;;;;;;;4988192;28;95691;-69
2022/01/25 12:21:52;;;;;;;69.32;43.17;;;;;;;;;;4994302;28;93626;-69
2022/01/25 12:24:23;;;;;;;79.20;46.25;;;;;;;;;;4992720;28;93155;-69
2022/01/25 12:27:02;;;;;;;75.40;43.72;;;;;;;;;;4989619;28;93316;-69
2022/01/25 12:29:46;;;;;;;77.53;44.35;;;;;;;;;;4994837;28;96913;-70
2022/01/25 12:32:21;;;;;;;74.68;45.80;;;;;;;;;;4994192;28;92581;-70
2022/01/25 12:34:56;;;;;;;78.68;45.00;;;;;;;;;;4993038;28;93371;-69
2022/01/25 12:37:42;;;;;;;79.63;44.63;;;;;;;;;;4987809;28;93967;-69
2022/01/25 12:40:20;;;;;;;69.95;41.03;;;;;;;;;;4992620;28;92521;-69
2022/01/25 12:42:46;;;;;;;76.55;43.40;;;;;;;;;;4989949;28;94193;-69
2022/01/25 12:45:16;;;;;;;77.47;45.55;;;;;;;;;;4989990;28;93198;-69
2022/01/25 12:48:01;;;;;;;74.32;44.67;;;;;;;;;;4992600;28;93387;-69
2022/01/25 12:50:28;;;;;;;138.25;64.25;;;;;;;;;;4992956;28;94048;-69
2022/01/25 12:52:54;;;;;;;77.68;45.63;;;;;;;;;;4992744;28;92819;-69
2022/01/25 12:55:25;;;;;;;73.15;46.40;;;;;;;;;;4991590;28;95624;-69
2022/01/25 12:57:53;;;;;;;81.68;47.33;;;;;;;;;;4995837;28;94518;-69
2022/01/25 13:00:20;;;;;;;81.75;47.00;;;;;;;;;;4997607;28;94226;-69
2022/01/25 13:02:46;;;;;;;74.75;45.30;;;;;;;;;;4993366;28;94053;-69
2022/01/25 13:05:16;;;;;;;79.05;45.70;;;;;;;;;;4991388;28;92684;-69
2022/01/25 13:07:43;;;;;;;80.22;46.53;;;;;;;;;;4998105;28;94994;-69
2022/01/25 13:10:12;;;;;;;78.53;45.22;;;;;;;;;;4994174;28;94262;-69
2022/01/25 13:12:55;;;;;;;79.35;46.67;;;;;;;;;;4992048;28;91760;-69
2022/01/25 13:15:52;;;;;;;69.55;37.17;;;;;;;;;;4984666;28;93320;-69
2022/01/25 13:18:19;;;;;;;75.75;42.05;;;;;;;;;;4987284;28;94044;-68
2022/01/25 13:20:57;;;;;;;69.47;43.60;;;;;;;;;;4997912;28;94907;-69
2022/01/25 13:23:25;;;;;;;80.30;43.05;;;;;;;;;;4986011;28;95390;-69
2022/01/25 13:28:52;;;;;;;81.80;45.55;;;;;;;;;;4992303;28;94562;-69
2022/01/25 13:31:20;;;;;;;79.45;47.72;;;;;;;;;;4998829;28;94484;-69
2022/01/25 13:33:47;;;;;;;75.13;46.45;;;;;;;;;;4992022;28;93183;-69
2022/01/25 13:36:17;;;;;;;81.15;47.15;;;;;;;;;;4998528;28;93172;-69
2022/01/25 13:38:43;;;;;;;74.97;41.38;;;;;;;;;;4992188;28;93540;-69
2022/01/25 13:41:19;;;;;;;76.57;45.13;;;;;;;;;;4992892;28;93342;-68
2022/01/25 13:46:28;;;;;;;71.95;45.33;;;;;;;;;;4991493;28;96353;-68
2022/01/25 13:48:57;;;;;;;82.90;46.50;;;;;;;;;;4991749;28;96811;-69
2022/01/25 13:51:24;;;;;;;75.68;45.38;;;;;;;;;;4983138;28;94384;-69
2022/01/25 13:53:56;;;;;;;76.03;45.15;;;;;;;;;;4990404;28;92498;-68
2022/01/25 13:56:24;;;;;;;79.55;43.60;;;;;;;;;;4983142;28;93212;-70
2022/01/25 13:58:51;;;;;;;76.22;43.72;;;;;;;;;;4986620;28;94437;-69
2022/01/25 14:01:21;;;;;;;73.78;41.83;;;;;;;;;;4997144;28;92513;-69
2022/01/25 14:03:52;;;;;;;74.22;44.47;;;;;;;;;;4997119;28;93275;-68
2022/01/25 14:06:20;;;;;;;72.43;44.17;;;;;;;;;;4999862;28;94174;-68
2022/01/25 14:08:46;;;;;;;74.07;44.58;;;;;;;;;;4998431;28;93052;-69
2022/01/25 14:11:15;;;;;;;72.35;44.28;;;;;;;;;;4993098;28;95625;-69
2022/01/25 14:24:54;;;;;;;76.07;45.78;;;;;;;;;;4980343;28;93998;-69
2022/01/25 14:27:31;;;;;;;78.40;45.15;;;;;;;;;;4992848;28;94352;-68
2022/01/25 14:29:57;;;;;;;74.93;45.17;;;;;;;;;;4990135;28;91851;-68
2022/01/25 14:32:30;;;;;;;73.95;43.20;;;;;;;;;;4996993;28;93583;-69
2022/01/25 14:35:11;;;;;;;85.93;44.70;;;;;;;;;;4994577;28;92483;-69
2022/01/25 14:37:46;;;;;;;71.93;40.50;;;;;;;;;;4985588;28;94883;-68
2022/01/25 14:40:13;;;;;;;77.22;47.42;;;;;;;;;;4992977;28;94369;-68
2022/01/25 14:42:40;;;;;;;77.63;44.72;;;;;;;;;;4990238;28;92501;-68
2022/01/25 14:45:12;;;;;;;75.43;45.83;;;;;;;;;;4997873;28;94396;-68
2022/01/25 14:47:41;;;;;;;78.60;47.20;;;;;;;;;;4993513;28;94156;-68
2022/01/25 14:50:15;;;;;;;76.18;45.42;;;;;;;;;;5000096;28;92577;-68
2022/01/25 14:52:41;;;;;;;75.97;44.65;;;;;;;;;;4985926;28;93152;-69
2022/01/25 14:55:17;;;;;;;79.95;46.03;;;;;;;;;;4997443;28;93903;-68
2022/01/25 14:58:01;;;;;;;82.45;46.42;;;;;;;;;;4989729;28;92497;-68
2022/01/25 15:00:27;;;;;;;69.07;41.88;;;;;;;;;;4995107;28;94738;-69
2022/01/25 15:02:53;;;;;;;74.60;43.35;;;;;;;;;;4992197;28;94924;-69
2022/01/25 15:05:20;;;;;;;78.07;46.22;;;;;;;;;;4996419;28;98878;-69
2022/01/25 15:07:46;;;;;;;73.93;44.28;;;;;;;;;;4993478;28;94273;-69
2022/01/25 15:10:19;;;;;;;80.78;43.60;;;;;;;;;;5000368;28;92546;-69
2022/01/25 15:12:48;;;;;;;82.25;45.30;;;;;;;;;;4986119;28;93224;-69
2022/01/25 15:15:25;;;;;;;76.10;44.78;;;;;;;;;;4996493;28;94381;-69
2022/01/25 15:17:52;;;;;;;74.97;43.53;;;;;;;;;;4994792;28;93997;-69
2022/01/25 15:20:18;;;;;;;79.90;45.78;;;;;;;;;;4994176;28;93440;-69
2022/01/25 15:22:46;;;;;;;81.68;48.00;;;;;;;;;;5006490;28;92790;-67
2022/01/25 15:25:19;;;;;;;77.30;45.90;;;;;;;;;;5001019;28;93234;-68
2022/01/25 15:27:46;;;;;;;81.32;46.10;;;;;;;;;;4990334;28;95707;-68
2022/01/25 15:30:13;;;;;;;80.40;46.92;;;;;;;;;;4992665;28;92511;-68
2022/01/25 15:32:39;;;;;;;78.53;46.40;;;;;;;;;;5000460;28;93603;-69
2022/01/25 15:35:06;;;;;;;77.88;45.22;;;;;;;;;;5000415;28;94694;-68
2022/01/25 15:37:32;;;;;;;80.10;46.92;;;;;;;;;;4996543;28;92705;-69
2022/01/25 15:39:59;;;;;;;77.68;44.67;;;;;;;;;;4985112;28;95027;-68
2022/01/25 15:42:28;;;;;;;76.07;45.72;;;;;;;;;;4999772;28;92760;-69
2022/01/25 15:44:55;;;;;;;77.07;46.38;;;;;;;;;;4996482;28;95773;-69
2022/01/25 15:47:26;;;;;;;75.10;45.17;;;;;;;;;;4997318;28;95880;-69
2022/01/25 15:49:52;;;;;;;76.70;47.30;;;;;;;;;;4992146;28;92660;-68
2022/01/25 15:52:19;;;;;;;82.60;45.33;;;;;;;;;;4998953;28;94913;-69
2022/01/25 15:54:45;;;;;;;82.93;47.03;;;;;;;;;;4993920;28;94214;-69
2022/01/25 15:57:12;;;;;;;82.10;46.33;;;;;;;;;;4991992;28;92568;-69
2022/01/25 15:59:38;;;;;;;84.15;47.35;;;;;;;;;;5001005;28;93455;-69
2022/01/25 16:02:13;;;;;;;87.47;47.88;;;;;;;;;;4993181;28;92534;-69
2022/01/25 16:04:41;;;;;;;82.97;46.15;;;;;;;;;;4999010;28;94227;-69
2022/01/25 16:07:15;;;;;;;75.03;43.10;;;;;;;;;;4996831;28;92475;-69
2022/01/25 16:09:43;;;;;;;92.90;45.33;;;;;;;;;;4995207;28;94215;-69
2022/01/25 16:12:10;;;;;;;81.60;46.47;;;;;;;;;;4990024;28;93023;-69
2022/01/25 16:14:37;;;;;;;87.13;45.40;;;;;;;;;;4994830;28;94902;-68
2022/01/25 16:17:04;;;;;;;83.72;46.00;;;;;;;;;;4961719;28;94888;-69
2022/01/25 16:19:30;;;;;;;82.88;46.35;;;;;;;;;;4983702;28;96604;-68
2022/01/25 16:21:57;;;;;;;82.50;45.15;;;;;;;;;;4994013;28;94303;-68
2022/01/25 16:24:24;;;;;;;77.93;43.72;;;;;;;;;;4991653;28;93237;-68
2022/01/25 16:26:50;;;;;;;81.65;47.13;;;;;;;;;;4998548;28;94262;-68
2022/01/25 16:29:16;;;;;;;81.93;44.90;;;;;;;;;;4990767;28;93359;-69
2022/01/25 16:31:43;;;;;;;79.75;46.15;;;;;;;;;;4993679;28;92989;-68
2022/01/25 16:34:12;;;;;;;76.53;43.63;;;;;;;;;;4997908;28;92536;-68
2022/01/25 16:36:39;;;;;;;81.40;44.42;;;;;;;;;;4986644;28;92443;-68
2022/01/25 16:39:07;;;;;;;77.53;44.60;;;;;;;;;;4993919;28;93334;-68